Erie, MI (48133)

11:55 AM EST on February 12, 2016 (GMT -0500)
South County, Erie, MI | | Change Station
CLOSE
Current Station
Personal Weather Station
Location: Erie, MI
Elevation: 576 ft
Nearby Weather Stations

Elev 576 ft 41.76 °N, 83.50 °W | Updated 1 minute ago

Overcast
Overcast
23.4 °F
Feels Like 12 °F
N
12.0
Wind Variable Wind from WSW
Gusts 12.0 mph

Today
High -- | Low -- °F
--% Chance of Precip.
Yesterday
High -- | Low -- °F
Precip. -- in
Pressure 30.04 in
Visibility 10.0 miles
Clouds Overcast 8000 ft
Windchill 12 °F
Dew Point 14 °F
Humidity 68%
Rainfall 0.00 in
Snow Depth Not available.
7:34 AM 6:02 PM
Waxing Crescent, 22% visible
METAR KDUH 121635Z AUTO 24008G16KT 10SM OVC080 M05/M11 A3004 RMK AO2 T10551115
Pressure 30.04 in
Visibility 10.0 miles
Clouds Overcast 8000 ft
Windchill 12 °F
Dew Point 14 °F
Humidity 68%
Rainfall 0.00 in
Snow Depth Not available.
7:34 AM 6:02 PM
Waxing Crescent, 22% visible
METAR KDUH 121635Z AUTO 24008G16KT 10SM OVC080 M05/M11 A3004 RMK AO2 T10551115

10-Day Weather Forecast

Almanac

Astronomy

Feb. 12, 2016 Rise Set
Actual Time
Civil Twilight
Nautical Twilight
Astronomical Twilight
Moon
Length of Visible Light
Length of Day
Tomorrow will be .
, % of the Moon is Illuminated

Today's Extremes

State Highs State Lows

Community

WunderPhotos

Upload Photos

1,892,354 photos uploaded!

WunderBlog® & News

Nearby

Air Quality

  Air Quality AQ Index Pollutant
Not available.

Snow Depth

Station Depth Elevation

Earthquake Activity

City Distance Mag. Time & Date
Minimum magnitude displayed is 2.5.

Coastal Water Temperatures

Place Temperature

Stations

Nearby Weather Stations

Station Location Temp. Windchill Dew Point Humidity Wind Precip. Elev Updated Type
                   

Watches & Warnings

There are currently no watches in effect.